OUK weather

Outer Skerries Airport
Grunay Island, Scotland, United Kingdom

Public forecast

Using degrees Celsius for public forecast. Weather courtesy of forecast.io.

METAR (pilot weather report)

Closest report is Scatsta Airport, 16.2 nm (30.0 km) W. Retrieved 2019/05/21 11:20 UTC (0 seconds ago):

EGPM 211120Z 01005KT 340V040 9999 SCT010 BKN016 10/09 Q1016 NOSIG

TAF (pilot weather forecast)

Forecast is more than 12 hours old.

Closest forecast is Scatsta Airport, 16.2 nm (30.0 km) W. Retrieved 2013/04/29 03:39 UTC (6 years ago):

TAF TAF EGPM 290337Z 2903/2915 22005KT 9999 SCT030 PROB30 TEMPO 2903/2906 7000 SHRAGS BECMG 2906/2909 32015KT PROB40 TEMPO 2906/2915 6000 SHRA SHGS BKN012CB